createdAt,value
2022-11-22T00:00:39.525Z,2.35
2022-11-22T00:03:06.889Z,1.45
2022-11-22T00:05:34.058Z,1.67
2022-11-22T00:08:01.002Z,2.00
2022-11-22T00:10:27.895Z,3.47
2022-11-22T00:12:55.107Z,1.58
2022-11-22T00:15:21.989Z,1.75
2022-11-22T00:17:48.998Z,1.35
2022-11-22T00:20:16.064Z,2.67
2022-11-22T00:22:44.693Z,2.17
2022-11-22T00:25:12.145Z,2.42
2022-11-22T00:27:39.064Z,1.38
2022-11-22T00:30:06.782Z,2.17
2022-11-22T00:32:34.086Z,1.90
2022-11-22T00:35:01.043Z,2.00
2022-11-22T00:37:27.936Z,2.60
2022-11-22T00:39:54.816Z,2.10
2022-11-22T00:42:21.716Z,2.17
2022-11-22T00:44:48.653Z,1.27
2022-11-22T00:47:15.467Z,1.60
2022-11-22T00:49:42.366Z,1.65
2022-11-22T00:52:09.170Z,1.20
2022-11-22T00:54:36.057Z,1.67
2022-11-22T00:57:03.278Z,2.45
2022-11-22T00:59:30.538Z,1.15
2022-11-22T01:01:57.717Z,2.05
2022-11-22T01:04:24.614Z,1.48
2022-11-22T01:06:51.529Z,3.78
2022-11-22T01:09:23.668Z,2.53
2022-11-22T01:11:50.962Z,1.70
2022-11-22T01:14:18.089Z,1.23
2022-11-22T01:16:45.187Z,1.20
2022-11-22T01:19:12.211Z,2.60
2022-11-22T01:21:39.439Z,2.05
2022-11-22T01:24:06.904Z,2.63
2022-11-22T01:26:34.402Z,2.58
2022-11-22T01:29:01.321Z,1.50
2022-11-22T01:31:30.249Z,1.90
2022-11-22T01:33:57.874Z,1.80
2022-11-22T01:36:24.979Z,1.52
2022-11-22T01:38:52.323Z,1.67
2022-11-22T01:41:19.158Z,1.83
2022-11-22T01:43:46.041Z,2.05
2022-11-22T01:46:28.284Z,4.85
2022-11-22T01:49:04.802Z,1.27
2022-11-22T01:51:53.891Z,1.40
2022-11-22T01:54:25.760Z,2.85
2022-11-22T01:56:57.129Z,1.38
2022-11-22T01:59:30.137Z,1.45
2022-11-22T02:01:57.636Z,2.08
2022-11-22T02:04:26.870Z,2.00
2022-11-22T02:07:29.703Z,2.35
2022-11-22T02:09:56.550Z,1.88
2022-11-22T02:12:28.895Z,1.40
2022-11-22T02:14:56.663Z,1.60
2022-11-22T02:17:26.820Z,1.40
2022-11-22T02:19:55.228Z,1.75
2022-11-22T02:22:40.182Z,4.43
2022-11-22T02:25:16.437Z,1.27
2022-11-22T02:27:43.573Z,1.35
2022-11-22T02:30:11.112Z,1.52
2022-11-22T02:32:38.109Z,1.58
2022-11-22T02:35:18.840Z,1.63
2022-11-22T02:37:47.349Z,1.52
2022-11-22T02:40:16.120Z,0.90
2022-11-22T02:42:47.964Z,2.45
2022-11-22T02:45:14.964Z,1.35
2022-11-22T02:47:42.069Z,2.03
2022-11-22T02:50:09.546Z,1.20
2022-11-22T02:52:36.402Z,2.13
2022-11-22T02:55:03.448Z,1.52
2022-11-22T02:57:30.275Z,0.95
2022-11-22T02:59:57.150Z,1.23
2022-11-22T03:02:23.976Z,1.58
2022-11-22T03:04:50.800Z,1.13
2022-11-22T03:07:18.498Z,2.63
2022-11-22T03:09:45.423Z,2.20
2022-11-22T03:12:12.300Z,1.30
2022-11-22T03:14:39.137Z,1.50
2022-11-22T03:17:05.945Z,1.23
2022-11-22T03:19:32.967Z,1.98
2022-11-22T03:21:59.962Z,1.48
2022-11-22T03:24:26.822Z,1.00
2022-11-22T03:26:53.695Z,1.45
2022-11-22T03:29:20.583Z,1.60
2022-11-22T03:31:47.449Z,1.35
2022-11-22T03:34:14.815Z,1.67
2022-11-22T03:36:41.890Z,1.10
2022-11-22T03:39:08.853Z,1.65
2022-11-22T03:41:35.720Z,1.27
2022-11-22T03:44:02.676Z,1.45
2022-11-22T03:46:29.564Z,2.45
2022-11-22T03:48:56.446Z,1.52
2022-11-22T03:51:23.363Z,1.23
2022-11-22T03:53:50.214Z,1.63
2022-11-22T03:56:17.161Z,1.30
2022-11-22T03:58:44.080Z,2.25
2022-11-22T04:01:16.358Z,1.25
2022-11-22T04:03:43.756Z,2.03
2022-11-22T04:06:10.619Z,1.13
2022-11-22T04:08:37.574Z,1.25
2022-11-22T04:11:04.440Z,1.20
2022-11-22T04:13:49.831Z,1.77
2022-11-22T04:16:16.672Z,2.17
2022-11-22T04:18:43.494Z,1.00
2022-11-22T04:21:28.764Z,0.70
2022-11-22T04:24:14.454Z,1.67
2022-11-22T04:26:41.252Z,0.90
2022-11-22T04:29:10.358Z,0.77
2022-11-22T04:31:56.153Z,0.82
2022-11-22T04:34:23.054Z,0.70
2022-11-22T04:36:49.903Z,0.88
2022-11-22T04:39:16.724Z,0.60
2022-11-22T04:41:43.531Z,0.75
2022-11-22T04:44:29.834Z,0.68
2022-11-22T04:46:56.719Z,1.38
2022-11-22T04:49:23.562Z,1.15
2022-11-22T04:52:08.991Z,1.10
2022-11-22T04:54:35.819Z,0.80
2022-11-22T04:57:02.898Z,0.60
2022-11-22T04:59:30.038Z,2.97
2022-11-22T05:01:57.023Z,1.58
2022-11-22T05:04:23.803Z,1.30
2022-11-22T05:06:51.703Z,1.10
2022-11-22T05:09:18.689Z,1.05
2022-11-22T05:11:45.487Z,1.17
2022-11-22T05:14:12.452Z,1.20
2022-11-22T05:16:39.352Z,0.70
2022-11-22T05:19:06.316Z,1.52
2022-11-22T05:21:35.855Z,0.95
2022-11-22T05:24:03.398Z,1.00
2022-11-22T05:26:33.141Z,2.85
2022-11-22T05:29:04.858Z,1.33
2022-11-22T05:31:33.873Z,0.70
2022-11-22T05:34:00.846Z,1.20
2022-11-22T05:36:27.756Z,1.20
2022-11-22T05:38:55.202Z,1.30
2022-11-22T05:41:22.200Z,2.67
2022-11-22T05:43:49.179Z,1.10
2022-11-22T05:46:23.869Z,1.13
2022-11-22T05:48:51.392Z,1.08
2022-11-22T05:51:20.577Z,1.25
2022-11-22T05:53:47.940Z,0.80
2022-11-22T05:56:17.724Z,1.10
2022-11-22T05:58:45.179Z,1.08
2022-11-22T06:01:14.748Z,0.95
2022-11-22T06:03:42.132Z,1.10
2022-11-22T06:06:09.991Z,0.82
2022-11-22T06:08:39.029Z,0.93
2022-11-22T06:11:13.270Z,1.60
2022-11-22T06:13:44.401Z,1.13
2022-11-22T06:18:38.601Z,2.17
2022-11-22T06:21:08.045Z,0.90
2022-11-22T06:23:35.336Z,1.25
2022-11-22T06:26:04.675Z,1.52
2022-11-22T06:28:32.978Z,0.68
2022-11-22T06:31:05.088Z,1.10
2022-11-22T06:33:32.132Z,0.90
2022-11-22T06:36:07.866Z,1.05
2022-11-22T06:38:35.212Z,1.25
2022-11-22T06:41:04.893Z,1.42
2022-11-22T06:43:34.031Z,0.90
2022-11-22T06:46:02.742Z,1.00
2022-11-22T06:48:31.491Z,1.35
2022-11-22T06:51:02.506Z,0.70
2022-11-22T06:53:46.870Z,1.25
2022-11-22T06:56:25.633Z,0.73
2022-11-22T06:58:53.229Z,1.65
2022-11-22T07:01:28.010Z,0.90
2022-11-22T07:03:58.710Z,4.18
2022-11-22T07:06:34.891Z,0.98
2022-11-22T07:09:03.248Z,0.65
2022-11-22T07:11:31.711Z,0.80
2022-11-22T07:14:05.367Z,0.60
2022-11-22T07:16:36.203Z,3.20
2022-11-22T07:19:03.716Z,1.23
2022-11-22T07:21:30.702Z,1.35
2022-11-22T07:23:57.552Z,0.70
2022-11-22T07:26:26.508Z,0.73
2022-11-22T07:28:53.523Z,1.65
2022-11-22T07:31:21.106Z,0.60
2022-11-22T07:33:48.413Z,2.80
2022-11-22T07:36:21.098Z,4.53
2022-11-22T07:38:49.561Z,0.63
2022-11-22T07:41:18.045Z,0.75
2022-11-22T07:43:46.283Z,2.22
2022-11-22T07:46:22.919Z,1.20
2022-11-22T07:48:50.162Z,1.10
2022-11-22T07:51:17.558Z,0.98
2022-11-22T07:53:44.676Z,0.65
2022-11-22T07:56:11.926Z,1.90
2022-11-22T07:58:39.212Z,0.60
2022-11-22T08:01:11.434Z,1.10
2022-11-22T08:03:38.778Z,0.43
2022-11-22T08:06:07.712Z,0.90
2022-11-22T08:08:36.194Z,0.90
2022-11-22T08:11:04.245Z,3.45
2022-11-22T08:13:32.276Z,1.13
2022-11-22T08:16:08.615Z,1.05
2022-11-22T08:18:36.765Z,0.90
2022-11-22T08:21:09.997Z,0.60
2022-11-22T08:23:37.561Z,0.68
2022-11-22T08:26:05.887Z,0.57
2022-11-22T08:28:33.233Z,2.05
2022-11-22T08:31:07.082Z,1.85
2022-11-22T08:33:34.105Z,7.97
2022-11-22T08:36:01.679Z,15.43
2022-11-22T08:38:28.839Z,2.25
2022-11-22T08:40:56.118Z,0.95
2022-11-22T08:43:23.645Z,3.95
2022-11-22T08:45:57.960Z,2.10
2022-11-22T08:48:26.103Z,9.98
2022-11-22T08:51:01.138Z,12.60
2022-11-22T08:53:30.096Z,6.53
2022-11-22T08:55:59.894Z,11.15
2022-11-22T08:58:31.910Z,6.20
2022-11-22T09:01:14.298Z,7.20
2022-11-22T09:03:42.135Z,6.90
2022-11-22T09:09:15.570Z,3.80
2022-11-22T09:11:46.003Z,3.20
2022-11-22T09:14:13.595Z,1.98
2022-11-22T09:16:40.553Z,4.75
2022-11-22T09:19:07.524Z,3.22
2022-11-22T09:21:34.611Z,3.63
2022-11-22T09:24:01.725Z,5.22
2022-11-22T09:26:29.736Z,2.55
2022-11-22T09:28:57.730Z,5.15
2022-11-22T09:31:25.384Z,1.38
2022-11-22T09:33:52.765Z,4.70
2022-11-22T09:36:22.481Z,5.40
2022-11-22T09:38:52.623Z,1.65
2022-11-22T09:41:41.084Z,2.58
2022-11-22T09:44:29.618Z,2.03
2022-11-22T09:47:09.083Z,1.67
2022-11-22T09:49:48.494Z,2.38
2022-11-22T09:52:41.487Z,2.25
2022-11-22T09:55:29.582Z,2.75
2022-11-22T09:58:24.534Z,2.58
2022-11-22T10:00:52.954Z,1.83
2022-11-22T10:03:30.176Z,3.10
2022-11-22T10:06:01.707Z,1.38
2022-11-22T10:08:52.386Z,3.88
2022-11-22T10:11:36.801Z,1.55
2022-11-22T10:14:13.911Z,1.83
2022-11-22T10:16:49.208Z,2.22
2022-11-22T10:19:24.002Z,1.30
2022-11-22T10:21:51.296Z,3.75
2022-11-22T10:24:20.067Z,4.28
2022-11-22T10:26:47.514Z,4.30
2022-11-22T10:29:40.326Z,3.15
2022-11-22T10:32:41.580Z,6.43
2022-11-22T10:35:27.404Z,1.70
2022-11-22T10:37:57.736Z,7.13
2022-11-22T10:40:33.877Z,2.40
2022-11-22T10:43:25.915Z,2.85
2022-11-22T10:46:35.384Z,4.72
2022-11-22T10:49:05.874Z,2.05
2022-11-22T10:51:51.871Z,4.50
2022-11-22T10:54:27.217Z,3.42
2022-11-22T10:57:18.707Z,4.28
2022-11-22T10:59:57.424Z,7.95
2022-11-22T11:02:47.381Z,2.67
2022-11-22T11:05:19.866Z,2.65
2022-11-22T11:07:56.732Z,4.45
2022-11-22T11:10:37.632Z,6.82
2022-11-22T11:13:15.227Z,4.40
2022-11-22T11:15:55.700Z,4.63
2022-11-22T11:18:31.370Z,5.35
2022-11-22T11:20:58.618Z,7.80
2022-11-22T11:23:25.714Z,4.80
2022-11-22T11:25:53.152Z,7.20
2022-11-22T11:28:27.014Z,3.13
2022-11-22T11:31:18.730Z,3.63
2022-11-22T11:33:46.921Z,4.63
2022-11-22T11:36:24.176Z,6.82
2022-11-22T11:38:57.303Z,5.22
2022-11-22T11:41:36.139Z,5.88
2022-11-22T11:44:06.397Z,3.17
2022-11-22T11:46:42.893Z,5.93
2022-11-22T11:49:16.111Z,4.55
2022-11-22T11:52:09.101Z,7.05
2022-11-22T11:54:39.855Z,2.72
2022-11-22T11:57:15.474Z,6.80
2022-11-22T11:59:45.905Z,3.22
2022-11-22T12:02:41.712Z,6.70
2022-11-22T12:05:14.845Z,5.13
2022-11-22T12:07:45.800Z,2.63
2022-11-22T12:10:36.808Z,3.88
2022-11-22T12:13:31.993Z,5.55
2022-11-22T12:16:29.761Z,3.15
2022-11-22T12:19:35.187Z,4.40
2022-11-22T12:22:05.622Z,1.83
2022-11-22T12:24:52.684Z,3.75
2022-11-22T12:27:28.780Z,5.22
2022-11-22T12:29:55.822Z,4.30
2022-11-22T12:32:30.886Z,3.50
2022-11-22T12:35:04.491Z,8.27
2022-11-22T12:37:31.523Z,3.08
2022-11-22T12:40:04.650Z,3.42
2022-11-22T12:42:46.881Z,5.93
2022-11-22T12:45:36.742Z,7.22
2022-11-22T12:48:17.326Z,2.70
2022-11-22T12:51:09.650Z,5.82
2022-11-22T12:53:42.204Z,1.80
2022-11-22T12:56:32.979Z,3.97
2022-11-22T12:59:19.747Z,37.83
2022-11-22T13:02:32.404Z,27.88
2022-11-22T13:05:15.920Z,23.65
2022-11-22T13:08:15.417Z,32.17
2022-11-22T13:10:53.832Z,27.63
2022-11-22T13:13:33.817Z,23.35
2022-11-22T13:16:03.267Z,20.50
2022-11-22T13:18:35.130Z,17.02
2022-11-22T13:21:11.197Z,18.50
2022-11-22T13:24:02.703Z,15.35
2022-11-22T13:26:54.369Z,14.38
2022-11-22T13:29:27.449Z,16.45
2022-11-22T13:32:01.474Z,18.42
2022-11-22T13:34:29.616Z,24.08
2022-11-22T13:37:07.033Z,19.23
2022-11-22T13:39:38.592Z,19.13
2022-11-22T13:42:07.521Z,20.83
2022-11-22T13:44:39.559Z,15.13
2022-11-22T13:47:24.568Z,12.93
2022-11-22T13:49:54.157Z,15.73
2022-11-22T13:52:21.083Z,13.90
2022-11-22T13:54:48.223Z,14.98
2022-11-22T13:57:30.523Z,20.15
2022-11-22T14:00:15.507Z,11.60
2022-11-22T14:02:51.427Z,15.82
2022-11-22T14:05:39.698Z,12.10
2022-11-22T14:08:35.636Z,7.18
2022-11-22T14:11:08.848Z,11.30
2022-11-22T14:13:52.777Z,9.68
2022-11-22T14:16:37.527Z,8.35
2022-11-22T14:19:19.349Z,8.57
2022-11-22T14:21:50.251Z,6.90
2022-11-22T14:24:35.751Z,9.45
2022-11-22T14:27:23.935Z,9.82
2022-11-22T14:30:23.090Z,8.82
2022-11-22T14:33:06.229Z,6.88
2022-11-22T14:35:37.930Z,8.15
2022-11-22T14:38:31.985Z,7.78
2022-11-22T14:41:27.059Z,6.20
2022-11-22T14:43:59.450Z,12.38
2022-11-22T14:46:52.349Z,5.85
2022-11-22T14:49:45.073Z,7.18
2022-11-22T14:52:24.919Z,6.90
2022-11-22T14:55:01.333Z,7.32
2022-11-22T14:57:33.014Z,5.03
2022-11-22T15:00:23.529Z,4.53
2022-11-22T15:03:15.095Z,5.27
2022-11-22T15:09:13.159Z,6.60
2022-11-22T15:09:46.577Z,5.65
2022-11-22T15:12:33.724Z,5.22
2022-11-22T15:58:13.236Z,3.00
2022-11-22T16:00:44.199Z,7.88
2022-11-22T16:03:27.260Z,5.07
2022-11-22T16:06:07.591Z,15.18
2022-11-22T16:08:38.890Z,11.88
2022-11-22T16:11:06.388Z,8.15
2022-11-22T16:13:36.590Z,8.45
2022-11-22T16:16:27.349Z,7.60
2022-11-22T16:19:14.189Z,6.80
2022-11-22T16:21:41.243Z,6.85
2022-11-22T16:24:12.951Z,4.40
2022-11-22T16:26:40.239Z,5.53
2022-11-22T16:29:38.156Z,7.88
2022-11-22T16:32:10.340Z,2.83
2022-11-22T16:34:38.166Z,5.97
2022-11-22T16:37:29.006Z,6.72
2022-11-22T16:39:59.026Z,5.60
2022-11-22T16:42:26.846Z,4.00
2022-11-22T16:44:53.998Z,6.55
2022-11-22T16:47:21.177Z,4.25
2022-11-22T16:49:49.638Z,4.50
2022-11-22T16:52:17.675Z,2.85
2022-11-22T16:54:45.140Z,3.20
2022-11-22T16:57:13.910Z,1.67
2022-11-22T16:59:41.196Z,3.55
2022-11-22T17:02:16.951Z,1.83
2022-11-22T17:04:46.177Z,1.85
2022-11-22T17:07:14.455Z,11.73
2022-11-22T17:09:41.880Z,5.25
2022-11-22T17:12:21.592Z,12.32
2022-11-22T17:14:49.603Z,18.90
2022-11-22T17:17:16.776Z,9.57
2022-11-22T17:19:53.284Z,10.45
2022-11-22T17:22:21.304Z,11.95
2022-11-22T17:24:48.376Z,10.27
2022-11-22T17:27:15.365Z,11.88
2022-11-22T17:29:51.159Z,13.82
2022-11-22T17:32:19.378Z,5.40
2022-11-22T17:34:46.400Z,6.65
2022-11-22T17:37:13.859Z,7.22
2022-11-22T17:39:41.599Z,11.75
2022-11-22T17:42:08.634Z,6.28
2022-11-22T17:44:35.751Z,10.15
2022-11-22T17:47:02.934Z,16.73
2022-11-22T17:49:31.117Z,13.43
2022-11-22T17:51:58.654Z,6.53
2022-11-22T17:54:25.721Z,6.30
2022-11-22T17:56:52.681Z,10.32
2022-11-22T17:59:19.698Z,11.27
2022-11-22T18:01:46.993Z,9.13
2022-11-22T18:04:15.065Z,8.27
2022-11-22T18:06:42.202Z,6.18
2022-11-22T18:09:09.785Z,13.07
2022-11-22T18:11:36.869Z,17.00
2022-11-22T18:14:04.005Z,26.05
2022-11-22T18:16:31.641Z,24.75
2022-11-22T18:18:59.455Z,20.83
2022-11-22T18:21:29.995Z,20.60
2022-11-22T18:23:58.922Z,15.05
2022-11-22T18:26:42.316Z,12.68
2022-11-22T18:29:41.579Z,5.75
2022-11-22T18:32:00.201Z,22.67
2022-11-22T18:34:28.274Z,10.32
2022-11-22T18:37:00.873Z,6.57
2022-11-22T18:39:35.519Z,9.32
2022-11-22T18:42:08.481Z,5.68
2022-11-22T18:44:37.028Z,10.77
2022-11-22T18:47:04.093Z,4.60
2022-11-22T18:49:31.859Z,3.83
2022-11-22T18:51:59.640Z,3.28
2022-11-22T18:54:27.244Z,10.57
2022-11-22T18:56:54.508Z,5.72
2022-11-22T18:59:21.532Z,4.88
2022-11-22T19:01:48.969Z,6.90
2022-11-22T19:04:16.633Z,4.75
2022-11-22T19:06:46.644Z,8.02
2022-11-22T19:09:16.988Z,3.17
2022-11-22T19:11:45.131Z,8.25
2022-11-22T19:14:12.902Z,3.63
2022-11-22T19:16:40.504Z,20.27
2022-11-22T19:19:11.427Z,9.88
2022-11-22T19:21:38.745Z,13.20
2022-11-22T19:24:07.798Z,8.15
2022-11-22T19:26:38.882Z,8.63
2022-11-22T19:31:35.534Z,4.63
2022-11-22T19:34:05.113Z,5.93
2022-11-22T19:36:34.182Z,6.75
2022-11-22T19:39:04.768Z,5.20
2022-11-22T19:41:32.723Z,5.65
2022-11-22T19:44:01.963Z,3.63
2022-11-22T19:46:30.221Z,6.40
2022-11-22T19:49:01.825Z,65.22
2022-11-22T19:51:31.245Z,29.15
2022-11-22T19:54:02.460Z,17.10
2022-11-22T19:56:37.001Z,22.33
2022-11-22T19:59:07.883Z,12.88
2022-11-22T20:01:35.826Z,12.63
2022-11-22T20:04:06.259Z,11.57
2022-11-22T20:06:35.548Z,35.88
2022-11-22T20:09:10.282Z,12.70
2022-11-22T20:11:38.986Z,16.17
2022-11-22T20:14:06.322Z,11.63
2022-11-22T20:16:34.072Z,14.75
2022-11-22T20:19:03.451Z,12.13
2022-11-22T20:21:34.139Z,14.88
2022-11-22T20:24:02.542Z,18.90
2022-11-22T20:26:31.807Z,28.38
2022-11-22T20:29:05.347Z,58.30
2022-11-22T20:31:34.628Z,21.13
2022-11-22T20:34:02.716Z,21.10
2022-11-22T20:36:34.250Z,20.67
2022-11-22T20:39:05.599Z,21.67
2022-11-22T20:41:36.855Z,15.43
2022-11-22T20:44:04.485Z,13.88
2022-11-22T20:46:31.760Z,11.68
2022-11-22T20:48:59.010Z,11.50
2022-11-22T20:51:28.139Z,9.75
2022-11-22T20:53:56.170Z,11.82
2022-11-22T20:56:23.412Z,10.52
2022-11-22T20:58:50.839Z,10.50
2022-11-22T21:01:23.254Z,7.00
2022-11-22T21:03:51.367Z,19.55
2022-11-22T21:06:20.583Z,25.20
2022-11-22T21:08:51.027Z,12.00
2022-11-22T21:11:23.331Z,11.77
2022-11-22T21:13:52.084Z,12.88
2022-11-22T21:16:25.224Z,15.32
2022-11-22T21:18:57.586Z,9.38
2022-11-22T21:21:25.924Z,8.63
2022-11-22T21:23:56.733Z,6.88
2022-11-22T21:26:25.398Z,7.55
2022-11-22T21:28:53.298Z,6.20
2022-11-22T21:31:21.389Z,8.35
2022-11-22T21:33:48.612Z,5.90
2022-11-22T21:36:16.434Z,5.53
2022-11-22T21:38:43.862Z,7.15
2022-11-22T21:44:04.063Z,5.82
2022-11-22T21:46:31.434Z,4.60
2022-11-22T21:48:58.476Z,7.00
2022-11-22T21:51:28.046Z,5.65
2022-11-22T21:54:02.365Z,3.25
2022-11-22T21:56:30.841Z,4.32
2022-11-22T21:58:58.031Z,4.35
2022-11-22T22:01:25.981Z,4.10
2022-11-22T22:03:53.722Z,3.28
2022-11-22T22:06:21.203Z,3.80
2022-11-22T22:08:48.759Z,3.65
2022-11-22T22:11:16.317Z,2.80
2022-11-22T22:13:43.966Z,4.95
2022-11-22T22:16:19.471Z,2.95
2022-11-22T22:18:47.638Z,3.25
2022-11-22T22:21:15.212Z,4.28
2022-11-22T22:23:43.408Z,3.83
2022-11-22T22:26:16.351Z,2.97
2022-11-22T22:28:45.533Z,1.95
2022-11-22T22:31:22.013Z,2.83
2022-11-22T22:33:54.792Z,2.45
2022-11-22T22:36:23.435Z,2.25
2022-11-22T22:38:51.375Z,2.00
2022-11-22T22:41:18.514Z,3.65
2022-11-22T22:43:48.324Z,2.33
2022-11-22T22:46:20.742Z,2.40
2022-11-22T22:48:48.841Z,2.40
2022-11-22T22:51:30.673Z,2.45
2022-11-22T22:54:01.993Z,2.20
2022-11-22T22:56:30.755Z,2.20
2022-11-22T22:59:01.308Z,2.08
2022-11-22T23:01:30.864Z,2.05
2022-11-22T23:04:00.435Z,1.85
2022-11-22T23:06:30.704Z,2.28
2022-11-22T23:08:58.448Z,2.10
2022-11-22T23:11:47.810Z,2.20
2022-11-22T23:14:17.686Z,2.05
2022-11-22T23:16:44.708Z,3.05
2022-11-22T23:19:12.007Z,2.17
2022-11-22T23:21:39.527Z,1.70
2022-11-22T23:24:07.282Z,2.00
2022-11-22T23:26:34.351Z,1.80
2022-11-22T23:29:01.575Z,1.50
2022-11-22T23:31:29.001Z,3.03
2022-11-22T23:33:56.012Z,1.90
2022-11-22T23:36:23.556Z,5.25
2022-11-22T23:38:50.547Z,2.85
2022-11-22T23:41:22.914Z,1.90
2022-11-22T23:43:55.079Z,1.70
2022-11-22T23:46:26.418Z,1.77
2022-11-22T23:48:57.907Z,2.05
2022-11-22T23:51:26.167Z,1.80
2022-11-22T23:53:58.286Z,2.45
2022-11-22T23:56:25.993Z,1.75
2022-11-22T23:58:53.313Z,2.70
